Atkinson, Maine
Current Conditions -  °F | °C
As of 11:53 PM on Friday 31 Oct 2014 (Local Time) from KBGR Reporting Station
Overcast Overcast  
Wind Chill: 37°   Ceiling: 4700
Heat Index: 42°   Visibility: 10mi
Dew Point: 35°   Wind: 8mph
Humidity: 76%   Direction: 10°N
Pressure: 30.05"   Gusts: NA
Location:  45.2129°N, 69.1615°W
Report Text: KBGR 010353Z 01007KT 10SM SCT027 OVC047 06/02 A3005 RMK AO2 SLP174 T00560017
Loading
Personal Weather Stations






























Interactive Weather Map
Tropical Storm Tracking
New forecast layout! Learn more

10-Day Weather Forecast

Advertisements
Track Severe Weather on mobile